createdAt,value
2022-09-03T00:02:53.634Z,63.83
2022-09-03T00:06:06.512Z,63.89
2022-09-03T00:08:44.645Z,64.68
2022-09-03T00:11:23.605Z,64.64
2022-09-03T00:14:07.787Z,64.34
2022-09-03T00:17:16.839Z,64.95
2022-09-03T00:20:10.771Z,64.76
2022-09-03T00:22:47.030Z,65.30
2022-09-03T00:25:29.823Z,64.81
2022-09-03T00:28:03.005Z,65.20
2022-09-03T00:30:32.611Z,65.89
2022-09-03T00:33:10.791Z,65.53
2022-09-03T00:36:00.176Z,65.26
2022-09-03T00:38:29.668Z,65.32
2022-09-03T00:41:14.482Z,65.87
2022-09-03T00:44:11.188Z,65.80
2022-09-03T00:46:53.211Z,66.29
2022-09-03T00:49:55.171Z,66.01
2022-09-03T00:52:38.346Z,66.29
2022-09-03T00:55:11.591Z,66.25
2022-09-03T00:58:22.187Z,66.18
2022-09-03T01:00:52.881Z,66.17
2022-09-03T01:03:53.462Z,66.18
2022-09-03T01:06:59.952Z,66.40
2022-09-03T01:10:08.961Z,66.00
2022-09-03T01:13:11.869Z,65.70
2022-09-03T01:16:28.304Z,65.93
2022-09-03T01:19:38.938Z,65.79
2022-09-03T01:22:21.043Z,66.10
2022-09-03T01:25:08.145Z,66.33
2022-09-03T01:28:19.253Z,66.34
2022-09-03T01:31:02.909Z,66.60
2022-09-03T01:33:57.425Z,66.93
2022-09-03T01:36:57.916Z,66.63
2022-09-03T01:40:19.974Z,66.76
2022-09-03T01:43:44.720Z,66.91
2022-09-03T01:46:34.637Z,67.69
2022-09-03T01:49:31.328Z,67.97
2022-09-03T01:52:13.741Z,68.37
2022-09-03T01:54:46.434Z,68.42
2022-09-03T01:57:35.412Z,68.54
2022-09-03T02:00:15.662Z,68.61
2022-09-03T02:02:49.107Z,68.66
2022-09-03T02:05:18.473Z,69.63
2022-09-03T02:08:07.929Z,69.78
2022-09-03T02:10:41.207Z,69.56
2022-09-03T02:13:14.076Z,70.20
2022-09-03T02:15:46.362Z,70.05
2022-09-03T02:18:27.183Z,69.94
2022-09-03T02:20:56.051Z,69.93
2022-09-03T02:23:27.709Z,70.15
2022-09-03T02:26:03.294Z,69.71
2022-09-03T02:28:32.821Z,70.28
2022-09-03T02:31:00.203Z,70.31
2022-09-03T02:33:28.522Z,70.58
2022-09-03T02:35:56.116Z,70.89
2022-09-03T02:38:26.577Z,71.27
2022-09-03T02:40:54.597Z,71.18
2022-09-03T02:44:08.608Z,71.69
2022-09-03T02:46:52.126Z,71.21
2022-09-03T02:49:19.927Z,71.29
2022-09-03T02:51:47.112Z,71.43
2022-09-03T02:54:18.927Z,71.55
2022-09-03T02:56:49.871Z,71.27
2022-09-03T02:59:18.107Z,71.00
2022-09-03T03:01:46.459Z,71.07
2022-09-03T03:04:14.648Z,70.64
2022-09-03T03:06:41.943Z,70.62
2022-09-03T03:09:09.309Z,70.43
2022-09-03T03:11:37.142Z,70.89
2022-09-03T03:14:04.601Z,71.50
2022-09-03T03:16:31.945Z,70.91
2022-09-03T03:19:00.292Z,71.75
2022-09-03T03:21:28.049Z,71.40
2022-09-03T03:23:55.506Z,71.83
2022-09-03T03:26:24.327Z,71.52
2022-09-03T03:28:58.242Z,71.66
2022-09-03T03:31:27.560Z,71.67
2022-09-03T03:33:58.427Z,71.80
2022-09-03T03:36:31.338Z,71.99
2022-09-03T03:39:00.414Z,72.14
2022-09-03T03:41:34.761Z,72.46
2022-09-03T03:44:06.420Z,72.64
2022-09-03T03:46:38.182Z,73.06
2022-09-03T03:49:07.748Z,72.82
2022-09-03T03:51:37.380Z,72.64
2022-09-03T03:54:05.898Z,72.92
2022-09-03T03:56:34.938Z,73.37
2022-09-03T03:59:02.680Z,73.68
2022-09-03T04:01:30.341Z,74.22
2022-09-03T04:04:00.389Z,74.10
2022-09-03T04:06:28.908Z,74.27
2022-09-03T04:08:56.287Z,74.00
2022-09-03T04:11:25.359Z,73.65
2022-09-03T04:13:53.927Z,73.37
2022-09-03T04:16:25.786Z,73.91
2022-09-03T04:18:55.408Z,73.69
2022-09-03T04:21:26.670Z,73.78
2022-09-03T04:23:57.704Z,73.76
2022-09-03T04:26:34.255Z,73.68
2022-09-03T04:29:08.933Z,74.30
2022-09-03T04:31:38.797Z,74.28
2022-09-03T04:34:07.485Z,74.34
2022-09-03T04:36:35.266Z,74.34
2022-09-03T04:39:02.912Z,74.12
2022-09-03T04:41:32.002Z,74.19
2022-09-03T04:44:00.373Z,74.49
2022-09-03T04:46:33.712Z,74.69
2022-09-03T04:49:02.535Z,75.01
2022-09-03T04:51:31.781Z,75.16
2022-09-03T04:54:02.437Z,74.58
2022-09-03T04:56:33.705Z,74.37
2022-09-03T04:59:09.754Z,74.37
2022-09-03T05:01:40.681Z,74.02
2022-09-03T05:04:09.127Z,74.79
2022-09-03T05:06:37.676Z,74.66
2022-09-03T05:09:06.777Z,74.38
2022-09-03T05:11:34.513Z,73.89
2022-09-03T05:14:02.039Z,74.06
2022-09-03T05:16:31.139Z,73.50
2022-09-03T05:19:01.276Z,73.53
2022-09-03T05:21:30.123Z,73.13
2022-09-03T05:23:59.988Z,72.65
2022-09-03T05:26:31.583Z,72.74
2022-09-03T05:29:01.945Z,72.79
2022-09-03T05:31:32.137Z,72.93
2022-09-03T05:34:03.483Z,72.92
2022-09-03T05:36:35.695Z,73.48
2022-09-03T05:39:05.611Z,73.39
2022-09-03T05:41:34.252Z,74.51
2022-09-03T05:44:02.357Z,73.83
2022-09-03T05:46:38.414Z,73.95
2022-09-03T05:49:08.113Z,73.84
2022-09-03T05:51:37.536Z,73.89
2022-09-03T05:54:05.307Z,73.85
2022-09-03T05:56:35.794Z,74.13
2022-09-03T05:59:09.224Z,74.75
2022-09-03T06:01:40.903Z,74.91
2022-09-03T06:04:15.589Z,75.10
2022-09-03T06:06:45.542Z,75.56
2022-09-03T06:09:23.215Z,75.48
2022-09-03T06:11:52.544Z,76.08
2022-09-03T06:14:20.855Z,76.50
2022-09-03T06:16:50.190Z,76.13
2022-09-03T06:19:18.021Z,76.11
2022-09-03T06:21:47.046Z,75.66
2022-09-03T06:24:18.897Z,75.75
2022-09-03T06:26:48.204Z,74.84
2022-09-03T06:29:16.210Z,73.86
2022-09-03T06:31:43.455Z,65.65
2022-09-03T06:34:10.922Z,60.08
2022-09-03T06:36:41.449Z,56.10
2022-09-03T06:39:08.811Z,52.30
2022-09-03T06:41:36.308Z,49.46
2022-09-03T06:44:11.331Z,46.35
2022-09-03T06:46:42.763Z,44.02
2022-09-03T06:49:11.920Z,41.20
2022-09-03T06:51:40.784Z,39.55
2022-09-03T06:54:11.250Z,36.84
2022-09-03T06:56:41.521Z,36.01
2022-09-03T06:59:14.962Z,34.12
2022-09-03T07:01:46.317Z,32.37
2022-09-03T07:04:20.410Z,31.13
2022-09-03T07:06:48.092Z,30.09
2022-09-03T07:09:18.380Z,33.34
2022-09-03T07:11:48.078Z,37.40
2022-09-03T07:14:18.978Z,39.49
2022-09-03T07:16:50.669Z,38.07
2022-09-03T07:19:18.743Z,35.09
2022-09-03T07:21:50.059Z,33.63
2022-09-03T07:24:22.407Z,29.35
2022-09-03T07:26:50.321Z,28.92
2022-09-03T07:29:20.819Z,29.53
2022-09-03T07:31:52.104Z,28.45
2022-09-03T07:34:25.305Z,32.39
2022-09-03T07:36:53.430Z,34.96
2022-09-03T07:39:21.248Z,34.91
2022-09-03T07:41:48.902Z,29.13
2022-09-03T07:44:22.961Z,28.64
2022-09-03T07:46:51.363Z,28.22
2022-09-03T07:49:21.235Z,23.27
2022-09-03T07:51:50.947Z,22.46
2022-09-03T07:54:18.211Z,21.28
2022-09-03T07:56:45.667Z,24.24
2022-09-03T07:59:13.045Z,23.12
2022-09-03T08:01:41.798Z,24.63
2022-09-03T08:04:11.015Z,27.66
2022-09-03T08:06:39.702Z,28.37
2022-09-03T08:09:11.670Z,27.55
2022-09-03T08:11:43.442Z,25.03
2022-09-03T08:14:13.908Z,22.21
2022-09-03T08:16:49.372Z,21.91
2022-09-03T08:19:18.634Z,23.61
2022-09-03T08:21:46.743Z,23.07
2022-09-03T08:24:17.291Z,26.51
2022-09-03T08:26:50.613Z,29.59
2022-09-03T08:29:21.309Z,29.43
2022-09-03T08:31:49.652Z,22.06
2022-09-03T08:34:18.031Z,17.76
2022-09-03T08:36:47.365Z,16.33
2022-09-03T08:39:14.788Z,14.85
2022-09-03T08:41:49.343Z,13.64
2022-09-03T08:44:22.487Z,14.58
2022-09-03T08:47:14.471Z,15.51
2022-09-03T08:50:27.735Z,13.52
2022-09-03T08:53:07.675Z,13.09
2022-09-03T08:55:53.898Z,11.40
2022-09-03T08:58:33.117Z,13.37
2022-09-03T09:01:35.959Z,16.57
2022-09-03T09:04:10.965Z,16.94
2022-09-03T09:07:08.357Z,20.19
2022-09-03T09:09:50.207Z,20.44
2022-09-03T09:12:55.366Z,23.43
2022-09-03T09:15:46.009Z,24.19
2022-09-03T09:18:51.377Z,27.54
2022-09-03T09:21:32.391Z,30.21
2022-09-03T09:24:12.162Z,30.74
2022-09-03T09:26:41.872Z,31.60
2022-09-03T09:29:12.297Z,31.97
2022-09-03T09:31:45.250Z,32.59
2022-09-03T09:34:13.041Z,34.11
2022-09-03T09:36:53.329Z,34.83
2022-09-03T09:39:22.096Z,36.32
2022-09-03T09:42:11.193Z,37.53
2022-09-03T09:44:42.528Z,38.63
2022-09-03T09:47:24.073Z,39.73
2022-09-03T09:50:01.116Z,40.39
2022-09-03T09:52:31.631Z,40.20
2022-09-03T09:55:17.709Z,40.41
2022-09-03T09:57:45.186Z,40.08
2022-09-03T10:00:17.734Z,40.68
2022-09-03T10:02:56.974Z,41.27
2022-09-03T10:05:31.460Z,41.80
2022-09-03T10:08:01.927Z,42.57
2022-09-03T10:10:37.878Z,43.95
2022-09-03T10:13:29.635Z,44.37
2022-09-03T10:16:22.018Z,44.99
2022-09-03T10:19:17.546Z,45.02
2022-09-03T10:22:20.282Z,45.79
2022-09-03T10:25:03.430Z,45.71
2022-09-03T10:27:32.148Z,46.23
2022-09-03T10:30:00.813Z,45.98
2022-09-03T10:32:42.754Z,46.15
2022-09-03T10:35:32.676Z,46.33
2022-09-03T10:38:27.160Z,46.67
2022-09-03T10:41:21.422Z,46.92
2022-09-03T10:44:06.888Z,46.76
2022-09-03T10:47:26.101Z,47.36
2022-09-03T10:50:16.350Z,46.22
2022-09-03T10:53:22.611Z,44.93
2022-09-03T10:56:17.977Z,45.32
2022-09-03T10:59:25.052Z,44.46
2022-09-03T11:02:11.402Z,45.47
2022-09-03T11:05:15.934Z,45.84
2022-09-03T11:08:07.060Z,44.95
2022-09-03T11:10:42.449Z,43.61
2022-09-03T11:13:22.350Z,43.83
2022-09-03T11:16:06.629Z,44.33
2022-09-03T11:18:49.270Z,43.78
2022-09-03T11:21:24.192Z,42.53
2022-09-03T11:24:14.751Z,39.84
2022-09-03T11:27:15.877Z,38.71
2022-09-03T11:29:58.483Z,38.38
2022-09-03T11:32:55.736Z,38.94
2022-09-03T11:35:28.322Z,39.59
2022-09-03T11:38:21.135Z,40.61
2022-09-03T11:41:27.202Z,40.43
2022-09-03T11:43:55.711Z,39.33
2022-09-03T11:46:23.327Z,38.10
2022-09-03T11:49:25.441Z,38.27
2022-09-03T11:52:04.681Z,39.07
2022-09-03T11:54:45.838Z,40.05
2022-09-03T11:57:27.315Z,41.32
2022-09-03T12:00:06.924Z,42.14
2022-09-03T12:02:39.212Z,43.02
2022-09-03T12:05:42.670Z,43.47
2022-09-03T12:08:35.626Z,44.08
2022-09-03T12:11:20.664Z,45.44
2022-09-03T12:14:18.654Z,46.19
2022-09-03T12:17:18.386Z,47.48
2022-09-03T12:19:58.807Z,47.72
2022-09-03T12:22:31.406Z,48.59
2022-09-03T12:25:15.395Z,48.23
2022-09-03T12:27:46.895Z,47.97
2022-09-03T12:30:23.525Z,47.65
2022-09-03T12:32:52.421Z,46.59
2022-09-03T12:38:25.076Z,46.22
2022-09-03T12:43:42.487Z,47.18
2022-09-03T12:46:16.176Z,47.73
2022-09-03T12:51:56.346Z,46.25
2022-09-03T12:54:27.056Z,44.39
2022-09-03T12:56:59.794Z,42.86
2022-09-03T12:59:37.137Z,41.57
2022-09-03T13:02:27.869Z,40.24
2022-09-03T13:04:56.691Z,39.58
2022-09-03T13:07:37.399Z,35.93
2022-09-03T13:10:16.600Z,32.38
2022-09-03T13:12:52.543Z,31.59
2022-09-03T13:15:24.358Z,30.79
2022-09-03T13:18:27.733Z,27.70
2022-09-03T13:21:21.350Z,22.84
2022-09-03T13:24:27.552Z,25.18
2022-09-03T13:27:08.895Z,27.14
2022-09-03T13:30:08.265Z,29.50
2022-09-03T13:33:20.071Z,29.21
2022-09-03T13:36:09.821Z,30.28
2022-09-03T13:38:59.145Z,30.74
2022-09-03T13:42:18.413Z,32.27
2022-09-03T13:45:14.765Z,33.09
2022-09-03T13:48:42.913Z,34.68
2022-09-03T13:51:32.492Z,35.07
2022-09-03T13:54:48.101Z,29.47
2022-09-03T13:57:45.973Z,24.20
2022-09-03T14:00:28.759Z,22.17
2022-09-03T14:03:19.118Z,20.45
2022-09-03T14:06:08.852Z,18.10
2022-09-03T14:09:43.382Z,16.77
2022-09-03T14:13:23.227Z,16.24
2022-09-03T14:16:20.746Z,16.12
2022-09-03T14:19:08.692Z,16.22
2022-09-03T14:22:01.691Z,17.74
2022-09-03T14:24:52.755Z,20.04
2022-09-03T14:27:29.684Z,20.93
2022-09-03T14:30:17.291Z,21.63
2022-09-03T14:33:03.433Z,23.67
2022-09-03T14:35:41.252Z,26.20
2022-09-03T14:38:41.333Z,28.60
2022-09-03T14:41:16.065Z,30.84
2022-09-03T14:44:04.622Z,33.08
2022-09-03T14:47:01.649Z,34.66
2022-09-03T14:49:40.499Z,35.62
2022-09-03T14:52:46.527Z,36.89
2022-09-03T14:55:42.696Z,38.24
2022-09-03T14:59:09.845Z,38.63
2022-09-03T15:01:39.383Z,39.76
2022-09-03T15:04:51.737Z,40.79
2022-09-03T15:07:42.076Z,40.80
2022-09-03T15:10:26.573Z,40.90
2022-09-03T15:13:19.032Z,41.42
2022-09-03T15:16:01.590Z,41.92
2022-09-03T15:18:43.770Z,41.84
2022-09-03T15:21:29.350Z,42.75
2022-09-03T15:24:16.310Z,43.69
2022-09-03T15:26:46.698Z,44.05
2022-09-03T15:29:25.548Z,44.87
2022-09-03T15:32:42.530Z,45.54
2022-09-03T15:35:42.897Z,45.76
2022-09-03T15:38:32.236Z,46.17
2022-09-03T15:41:17.719Z,45.89
2022-09-03T15:43:51.322Z,46.10
2022-09-03T15:46:46.514Z,46.58
2022-09-03T15:49:40.947Z,46.66
2022-09-03T15:52:33.598Z,47.56
2022-09-03T15:55:23.916Z,48.38
2022-09-03T15:58:12.018Z,49.34
2022-09-03T16:00:45.574Z,50.51
2022-09-03T16:03:21.760Z,50.22
2022-09-03T16:06:39.015Z,51.42
2022-09-03T16:09:22.503Z,51.39
2022-09-03T16:12:17.076Z,52.26
2022-09-03T16:15:11.791Z,52.85
2022-09-03T16:18:09.641Z,52.94
2022-09-03T16:21:12.454Z,53.03
2022-09-03T16:23:56.777Z,53.51
2022-09-03T16:26:36.341Z,53.16
2022-09-03T16:29:19.086Z,53.31
2022-09-03T16:31:56.121Z,53.84
2022-09-03T16:35:24.198Z,54.54
2022-09-03T16:38:26.139Z,55.14
2022-09-03T16:41:36.571Z,55.21
2022-09-03T16:44:46.106Z,56.22
2022-09-03T16:47:46.318Z,56.35
2022-09-03T16:50:34.853Z,56.42
2022-09-03T16:53:28.880Z,57.78
2022-09-03T16:56:55.747Z,58.97
2022-09-03T16:59:47.938Z,59.04
2022-09-03T17:02:47.655Z,58.46
2022-09-03T17:06:03.485Z,59.79
2022-09-03T17:08:55.431Z,60.52
2022-09-03T17:12:03.629Z,59.82
2022-09-03T17:14:52.152Z,60.45
2022-09-03T17:17:27.876Z,62.15
2022-09-03T17:20:10.135Z,62.15
2022-09-03T17:23:14.575Z,62.55
2022-09-03T17:26:21.348Z,63.32
2022-09-03T17:30:00.435Z,64.35
2022-09-03T17:33:05.111Z,65.09
2022-09-03T17:36:11.383Z,65.72
2022-09-03T17:39:15.872Z,65.44
2022-09-03T17:42:05.119Z,65.43
2022-09-03T17:44:51.525Z,66.72
2022-09-03T17:48:06.736Z,66.45
2022-09-03T17:51:01.428Z,68.13
2022-09-03T17:53:47.081Z,67.56
2022-09-03T17:56:35.525Z,68.46
2022-09-03T17:59:46.402Z,69.26
2022-09-03T18:02:36.461Z,70.33
2022-09-03T18:05:29.689Z,70.80
2022-09-03T18:08:11.898Z,71.44
2022-09-03T18:11:11.712Z,72.32
2022-09-03T18:14:09.543Z,72.64
2022-09-03T18:17:07.842Z,72.68
2022-09-03T18:20:18.923Z,73.18
2022-09-03T18:23:30.405Z,73.75
2022-09-03T18:26:23.910Z,74.62
2022-09-03T18:29:21.445Z,75.33
2022-09-03T18:32:07.266Z,75.14
2022-09-03T18:34:55.503Z,74.53
2022-09-03T18:37:45.492Z,74.26
2022-09-03T18:40:47.579Z,73.86
2022-09-03T18:44:15.293Z,73.85
2022-09-03T18:51:00.155Z,75.51
2022-09-03T18:54:04.413Z,75.58
2022-09-03T18:57:11.840Z,76.37
2022-09-03T19:00:30.075Z,76.43
2022-09-03T19:04:19.066Z,77.25
2022-09-03T19:07:40.433Z,78.20
2022-09-03T19:10:43.583Z,78.56
2022-09-03T19:13:51.918Z,78.17
2022-09-03T19:17:20.554Z,78.40
2022-09-03T19:20:41.178Z,78.80
2022-09-03T19:23:26.877Z,79.22
2022-09-03T19:26:21.623Z,78.92
2022-09-03T19:29:20.931Z,79.45
2022-09-03T19:32:24.834Z,78.74
2022-09-03T19:35:27.503Z,78.46
2022-09-03T19:38:48.015Z,79.12
2022-09-03T19:41:52.285Z,79.55
2022-09-03T19:44:58.632Z,79.31
2022-09-03T19:48:30.134Z,78.98
2022-09-03T19:51:30.247Z,78.93
2022-09-03T19:54:21.425Z,78.75
2022-09-03T19:57:10.166Z,78.63
2022-09-03T19:59:59.977Z,78.56
2022-09-03T20:02:46.210Z,79.11
2022-09-03T20:05:41.109Z,79.29
2022-09-03T20:08:28.739Z,79.41
2022-09-03T20:10:59.150Z,79.43
2022-09-03T20:13:26.813Z,79.42
2022-09-03T20:16:22.147Z,79.50
2022-09-03T20:19:26.673Z,79.77
2022-09-03T20:22:19.079Z,79.72
2022-09-03T20:25:27.275Z,79.45
2022-09-03T20:28:11.005Z,79.26
2022-09-03T20:30:56.526Z,79.69
2022-09-03T20:33:49.615Z,79.68
2022-09-03T20:36:49.892Z,79.49
2022-09-03T20:40:26.945Z,79.64
2022-09-03T20:43:29.239Z,79.54
2022-09-03T20:46:27.875Z,80.51
2022-09-03T20:49:38.211Z,79.74
2022-09-03T20:52:35.245Z,80.13
2022-09-03T20:55:21.278Z,80.90
2022-09-03T20:58:27.419Z,81.24
2022-09-03T21:01:22.774Z,80.95
2022-09-03T21:04:36.693Z,80.79
2022-09-03T21:07:55.583Z,81.31
2022-09-03T21:10:32.044Z,81.19
2022-09-03T21:13:16.109Z,81.57
2022-09-03T21:15:57.482Z,81.41
2022-09-03T21:18:42.495Z,81.95
2022-09-03T21:21:23.926Z,82.74
2022-09-03T21:24:07.917Z,82.53
2022-09-03T21:26:46.187Z,82.06
2022-09-03T21:29:28.560Z,82.01
2022-09-03T21:31:58.509Z,82.17
2022-09-03T21:34:41.098Z,82.32
2022-09-03T21:37:13.448Z,82.01
2022-09-03T21:39:54.714Z,82.27
2022-09-03T21:42:36.633Z,82.75
2022-09-03T21:45:17.285Z,83.28
2022-09-03T21:47:58.374Z,83.17
2022-09-03T21:50:39.222Z,83.41
2022-09-03T21:53:22.675Z,83.49
2022-09-03T21:56:30.921Z,84.01
2022-09-03T21:59:26.117Z,83.82
2022-09-03T22:02:08.955Z,83.77
2022-09-03T22:04:36.381Z,83.97
2022-09-03T22:07:27.954Z,83.79
2022-09-03T22:10:08.172Z,83.91
2022-09-03T22:13:09.292Z,84.07
2022-09-03T22:15:38.312Z,84.04
2022-09-03T22:18:28.823Z,83.75
2022-09-03T22:21:11.468Z,83.43
2022-09-03T22:24:22.993Z,83.73
2022-09-03T22:27:37.881Z,83.78
2022-09-03T22:30:21.423Z,83.61
2022-09-03T22:33:15.605Z,84.18
2022-09-03T22:36:01.307Z,83.79
2022-09-03T22:38:40.636Z,83.76
2022-09-03T22:41:53.216Z,84.02
2022-09-03T22:45:11.852Z,84.28
2022-09-03T22:48:08.313Z,84.28
2022-09-03T22:51:00.388Z,84.67
2022-09-03T22:53:48.794Z,84.65
2022-09-03T22:56:22.314Z,84.44
2022-09-03T22:59:20.540Z,84.63
2022-09-03T23:02:18.418Z,84.20
2022-09-03T23:05:28.080Z,84.50
2022-09-03T23:08:06.742Z,84.39
2022-09-03T23:11:14.631Z,84.76
2022-09-03T23:14:03.714Z,84.20
2022-09-03T23:16:52.820Z,83.95
2022-09-03T23:21:56.936Z,84.10
2022-09-03T23:24:35.672Z,83.80
2022-09-03T23:27:08.960Z,83.85
2022-09-03T23:29:53.014Z,83.70
2022-09-03T23:32:20.494Z,83.82
2022-09-03T23:34:48.028Z,84.06
2022-09-03T23:37:58.804Z,84.07
2022-09-03T23:40:45.351Z,84.22
2022-09-03T23:43:35.601Z,83.67
2022-09-03T23:46:08.635Z,83.62
2022-09-03T23:49:12.922Z,83.67
2022-09-03T23:51:58.953Z,83.35
2022-09-03T23:54:42.326Z,83.25
2022-09-03T23:57:46.053Z,83.35
